Time;durP1;ratioP1;P1;durP2;ratioP2;P2;SDS_P1;SDS_P2;PMS_P1;PMS_P2;Temp;Humidity;BMP_temperature;BMP_pressure;BME280_temperature;BME280_humidity;BME280_pressure;Samples;Min_cycle;Max_cycle;Signal;HPM_P1;HPM_P2
2021/01/27 10:17:14;;;;;;;;;23.40;17.60;;;;;;;;1572838;27;83780;-89
2021/01/27 10:18:09;;;;;;;;;12.00;9.20;;;;;;;;1565029;27;83443;-89
2021/01/27 10:19:02;;;;;;;;;24.40;19.20;;;;;;;;1559489;28;85126;-89
2021/01/27 10:19:59;;;;;;;;;21.20;17.80;;;;;;;;1556491;28;83824;-89
2021/01/27 10:20:48;;;;;;;;;20.40;14.60;;;;;;;;1557440;28;86403;-90
2021/01/27 10:21:43;;;;;;;;;17.00;13.60;;;;;;;;1559172;28;85783;-89
2021/01/27 10:22:40;;;;;;;;;20.00;17.60;;;;;;;;1552670;28;87713;-89
2021/01/27 10:23:37;;;;;;;;;15.80;14.40;;;;;;;;1557942;28;85255;-90
2021/01/27 10:24:39;;;;;;;;;17.80;14.00;;;;;;;;1558286;28;84543;-90
2021/01/27 10:25:33;;;;;;;;;12.80;11.60;;;;;;;;1552876;28;84999;-90
2021/01/27 10:26:35;;;;;;;;;15.60;15.00;;;;;;;;1552810;28;84883;-90
2021/01/27 10:27:20;;;;;;;;;13.00;10.20;;;;;;;;1558757;28;85224;-90
2021/01/27 10:28:08;;;;;;;;;16.50;13.75;;;;;;;;1552957;28;84123;-90
2021/01/27 10:29:29;;;;;;;;;11.80;11.20;;;;;;;;1552728;28;84848;-89
2021/01/27 10:30:14;;;;;;;;;12.40;10.80;;;;;;;;1536345;28;85216;-89
2021/01/27 10:31:00;;;;;;;;;14.00;12.75;;;;;;;;1534245;28;84462;-90
2021/01/27 10:31:51;;;;;;;;;9.80;9.20;;;;;;;;1528208;28;83729;-89
2021/01/27 10:32:38;;;;;;;;;11.40;10.40;;;;;;;;1531436;28;83960;-89
2021/01/27 10:33:42;;;;;;;;;11.60;11.60;;;;;;;;1538545;28;86013;-90
2021/01/27 10:34:34;;;;;;;;;9.00;9.00;;;;;;;;1536065;28;84126;-90
2021/01/27 10:35:19;;;;;;;;;12.40;10.00;;;;;;;;1533643;28;83980;-89
2021/01/27 10:36:28;;;;;;;;;10.25;9.75;;;;;;;;1531109;28;84808;-89
2021/01/27 10:37:32;;;;;;;;;10.40;10.40;;;;;;;;1531731;28;86491;-89
2021/01/27 10:38:18;;;;;;;;;11.00;9.40;;;;;;;;1540557;28;84981;-90
2021/01/27 10:39:20;;;;;;;;;10.40;10.40;;;;;;;;1534227;28;87017;-90
2021/01/27 10:40:07;;;;;;;;;10.20;10.20;;;;;;;;1538643;28;85062;-89
2021/01/27 10:41:02;;;;;;;;;9.00;9.00;;;;;;;;1540360;28;84116;-90
2021/01/27 10:42:06;;;;;;;;;13.20;12.00;;;;;;;;1538117;28;86215;-89
2021/01/27 10:42:59;;;;;;;;;8.60;7.00;;;;;;;;1537058;28;84774;-89
2021/01/27 10:43:44;;;;;;;;;7.60;7.60;;;;;;;;1539945;28;85299;-90
2021/01/27 10:44:31;;;;;;;;;5.75;4.25;;;;;;;;1534349;28;85677;-90
2021/01/27 10:45:24;;;;;;;;;8.00;7.40;;;;;;;;1536475;28;87112;-90
2021/01/27 10:46:32;;;;;;;;;6.20;6.20;;;;;;;;1537512;28;85182;-90
2021/01/27 10:47:27;;;;;;;;;5.80;4.60;;;;;;;;1534788;28;85219;-90
2021/01/27 10:48:21;;;;;;;;;5.00;4.00;;;;;;;;1539054;28;87034;-90
2021/01/27 10:49:08;;;;;;;;;6.00;4.75;;;;;;;;1539118;28;85697;-89
2021/01/27 10:49:56;;;;;;;;;4.00;4.00;;;;;;;;1539616;28;85664;-90
2021/01/27 10:50:46;;;;;;;;;4.75;4.75;;;;;;;;1538960;28;85616;-90
2021/01/27 10:51:32;;;;;;;;;6.00;5.00;;;;;;;;1535931;28;84583;-90
2021/01/27 10:52:22;;;;;;;;;3.67;3.00;;;;;;;;1536422;28;87117;-90
2021/01/27 10:53:09;;;;;;;;;5.75;4.25;;;;;;;;1534739;28;84195;-90
2021/01/27 10:53:57;;;;;;;;;4.25;4.25;;;;;;;;1533016;28;87270;-90
2021/01/27 10:54:45;;;;;;;;;4.00;2.50;;;;;;;;1535005;28;85436;-90
2021/01/27 10:55:35;;;;;;;;;2.00;2.00;;;;;;;;1537836;28;84195;-90
2021/01/27 10:56:20;;;;;;;;;3.50;3.50;;;;;;;;1543427;28;85152;-91
2021/01/27 10:57:05;;;;;;;;;4.67;4.67;;;;;;;;1540614;28;85526;-90
2021/01/27 10:58:03;;;;;;;;;4.67;3.67;;;;;;;;1540590;28;86577;-90
2021/01/27 10:58:51;;;;;;;;;7.00;5.50;;;;;;;;1533927;28;84224;-90
2021/01/27 10:59:36;;;;;;;;;5.50;5.50;;;;;;;;1540650;28;84517;-90
2021/01/27 11:00:21;;;;;;;;;6.67;5.00;;;;;;;;1539593;28;86416;-89
2021/01/27 11:01:06;;;;;;;;;7.00;7.00;;;;;;;;1534377;28;84107;-90
2021/01/27 11:01:52;;;;;;;;;7.33;6.67;;;;;;;;1536916;28;86118;-91
2021/01/27 11:02:37;;;;;;;;;7.00;6.00;;;;;;;;1534404;28;86024;-91
2021/01/27 11:03:22;;;;;;;;;7.67;7.67;;;;;;;;1536421;28;84157;-90
2021/01/27 11:04:08;;;;;;;;;7.00;5.67;;;;;;;;1536306;28;85269;-90
2021/01/27 11:04:53;;;;;;;;;6.00;6.00;;;;;;;;1543518;28;85363;-90
2021/01/27 11:05:41;;;;;;;;;5.00;5.00;;;;;;;;1559094;28;85642;-90
2021/01/27 11:06:28;;;;;;;;;5.50;5.50;;;;;;;;1564064;27;83631;-90
2021/01/27 11:07:16;;;;;;;;;5.25;5.25;;;;;;;;1558999;28;83758;-90
2021/01/27 11:08:05;;;;;;;;;6.25;6.25;;;;;;;;1554708;28;84467;-90
2021/01/27 11:08:51;;;;;;;;;5.25;3.00;;;;;;;;1555785;28;83478;-90
2021/01/27 11:09:38;;;;;;;;;7.67;6.33;;;;;;;;1555463;28;82997;-91
2021/01/27 11:10:24;;;;;;;;;9.25;9.25;;;;;;;;1559151;28;83325;-91
2021/01/27 11:11:14;;;;;;;;;10.33;10.33;;;;;;;;1558938;28;83488;-91
2021/01/27 11:11:59;;;;;;;;;8.75;6.00;;;;;;;;1555234;28;83649;-91
2021/01/27 11:12:45;;;;;;;;;12.67;9.33;;;;;;;;1555626;28;82893;-90
2021/01/27 11:13:32;;;;;;;;;9.67;8.00;;;;;;;;1560871;27;83435;-90
2021/01/27 11:14:19;;;;;;;;;10.50;9.50;;;;;;;;1558958;27;83548;-90
2021/01/27 11:15:05;;;;;;;;;8.75;7.50;;;;;;;;1555109;28;83419;-91
2021/01/27 11:15:53;;;;;;;;;7.33;7.00;;;;;;;;1555420;28;83246;-90
2021/01/27 11:16:40;;;;;;;;;6.75;6.25;;;;;;;;1561325;27;82589;-90
2021/01/27 11:17:26;;;;;;;;;3.50;3.50;;;;;;;;1559316;28;83032;-90
2021/01/27 11:18:13;;;;;;;;;5.67;4.67;;;;;;;;1555310;28;83150;-90
2021/01/27 11:19:06;;;;;;;;;6.00;4.75;;;;;;;;1555242;28;83551;-90
2021/01/27 11:19:52;;;;;;;;;6.00;5.50;;;;;;;;1561756;27;83373;-90
2021/01/27 11:20:38;;;;;;;;;6.33;6.33;;;;;;;;1559008;28;83163;-90
2021/01/27 11:21:24;;;;;;;;;9.25;7.25;;;;;;;;1554731;28;84311;-90
2021/01/27 11:22:09;;;;;;;;;6.50;6.50;;;;;;;;1555167;28;83156;-90
2021/01/27 11:22:55;;;;;;;;;4.00;2.67;;;;;;;;1561216;27;83585;-90
2021/01/27 11:23:43;;;;;;;;;12.00;10.50;;;;;;;;1559261;28;83632;-89
2021/01/27 11:24:29;;;;;;;;;9.00;6.50;;;;;;;;1555041;28;84609;-89
2021/01/27 11:25:16;;;;;;;;;17.00;15.00;;;;;;;;1555280;28;83031;-90
2021/01/27 11:26:01;;;;;;;;;14.00;13.00;;;;;;;;1561166;27;85122;-90
2021/01/27 11:26:49;;;;;;;;;10.00;9.67;;;;;;;;1558635;28;85299;-90
2021/01/27 11:27:44;;;;;;;;;;;;;;;;;;;;;
2021/01/27 11:28:35;;;;;;;;;10.25;9.75;;;;;;;;1563319;27;109909;-90
2021/01/27 11:29:23;;;;;;;;;11.00;11.00;;;;;;;;1554607;28;85799;-90
2021/01/27 11:30:08;;;;;;;;;14.25;12.75;;;;;;;;1548719;28;86404;-90
2021/01/27 11:30:54;;;;;;;;;11.67;11.33;;;;;;;;1547981;28;85394;-89
2021/01/27 11:31:40;;;;;;;;;10.50;9.75;;;;;;;;1544444;28;85837;-90
2021/01/27 11:32:27;;;;;;;;;10.67;10.67;;;;;;;;1548616;28;84760;-89
2021/01/27 11:33:15;;;;;;;;;16.00;14.75;;;;;;;;1544409;28;84567;-90
2021/01/27 11:34:00;;;;;;;;;10.50;10.25;;;;;;;;1545401;28;84399;-89
2021/01/27 11:34:46;;;;;;;;;15.67;14.33;;;;;;;;1553790;28;86452;-89
2021/01/27 11:35:31;;;;;;;;;18.00;14.33;;;;;;;;1550225;28;86552;-90
2021/01/27 11:36:21;;;;;;;;;12.67;11.67;;;;;;;;1550539;28;83921;-89
2021/01/27 11:37:09;;;;;;;;;18.00;15.00;;;;;;;;1550999;28;84891;-89
2021/01/27 11:38:04;;;;;;;;;;;;;;;;;;;;;
2021/01/27 11:38:52;;;;;;;;;12.75;12.75;;;;;;;;1560139;28;112552;-89
2021/01/27 11:39:48;;;;;;;;;13.50;10.25;;;;;;;;1554284;28;86079;-90
2021/01/27 11:40:33;;;;;;;;;12.00;10.25;;;;;;;;1559242;28;86020;-90
2021/01/27 11:41:23;;;;;;;;;14.33;13.00;;;;;;;;1560869;28;84759;-90
2021/01/27 11:42:08;;;;;;;;;11.50;10.00;;;;;;;;1560738;27;85437;-90
2021/01/27 11:42:53;;;;;;;;;17.25;16.50;;;;;;;;1565863;28;86031;-89
2021/01/27 11:43:41;;;;;;;;;13.00;12.00;;;;;;;;1560733;28;83503;-89
2021/01/27 11:44:27;;;;;;;;;12.25;11.50;;;;;;;;1562400;28;85741;-88
2021/01/27 11:45:15;;;;;;;;;9.67;9.67;;;;;;;;1557974;28;86813;-89
2021/01/27 11:46:02;;;;;;;;;9.25;7.50;;;;;;;;1562851;28;85263;-89
2021/01/27 11:46:50;;;;;;;;;8.00;7.00;;;;;;;;1558274;28;85195;-89
2021/01/27 11:47:36;;;;;;;;;9.75;8.50;;;;;;;;1551005;28;84955;-88
2021/01/27 11:48:21;;;;;;;;;8.33;7.00;;;;;;;;1551569;28;85601;-88
2021/01/27 11:49:07;;;;;;;;;8.50;7.00;;;;;;;;1551446;28;85882;-89
2021/01/27 11:49:53;;;;;;;;;5.75;5.00;;;;;;;;1548360;28;83976;-89
2021/01/27 11:50:41;;;;;;;;;7.00;7.00;;;;;;;;1551493;28;84910;-88
2021/01/27 11:51:26;;;;;;;;;8.75;7.00;;;;;;;;1546285;28;85716;-90
2021/01/27 11:52:19;;;;;;;;;5.00;5.00;;;;;;;;1550997;28;85450;-89
2021/01/27 11:53:07;;;;;;;;;4.25;4.25;;;;;;;;1557741;28;85601;-89
2021/01/27 11:53:52;;;;;;;;;5.50;5.00;;;;;;;;1550827;28;87755;-90
2021/01/27 11:54:47;;;;;;;;;6.67;5.00;;;;;;;;1544979;28;85078;-90
2021/01/27 11:55:40;;;;;;;;;5.75;5.75;;;;;;;;1545684;28;85787;-90
2021/01/27 11:56:28;;;;;;;;;10.25;7.00;;;;;;;;1546292;28;85443;-90
2021/01/27 11:57:16;;;;;;;;;4.00;4.00;;;;;;;;1548728;28;86651;-90
2021/01/27 11:58:06;;;;;;;;;5.50;5.50;;;;;;;;1545190;28;85258;-90
2021/01/27 11:59:00;;;;;;;;;5.50;5.50;;;;;;;;1548554;28;84913;-90
2021/01/27 11:59:45;;;;;;;;;5.00;5.00;;;;;;;;1551240;28;85499;-89
2021/01/27 12:00:31;;;;;;;;;7.00;7.00;;;;;;;;1554660;28;85698;-90
2021/01/27 12:01:16;;;;;;;;;6.33;6.00;;;;;;;;1548402;28;84068;-90
2021/01/27 12:02:02;;;;;;;;;5.67;5.67;;;;;;;;1543976;28;85464;-89
2021/01/27 12:02:48;;;;;;;;;4.50;4.50;;;;;;;;1544536;28;86074;-89
2021/01/27 12:03:33;;;;;;;;;5.67;5.67;;;;;;;;1550729;28;85345;-89
2021/01/27 12:04:23;;;;;;;;;2.00;2.00;;;;;;;;1554353;28;84263;-89
2021/01/27 12:05:16;;;;;;;;;6.25;6.25;;;;;;;;1548484;28;86500;-89
2021/01/27 12:06:01;;;;;;;;;6.25;6.25;;;;;;;;1545956;28;85685;-89
2021/01/27 12:06:49;;;;;;;;;6.33;5.00;;;;;;;;1544925;28;83151;-89
2021/01/27 12:07:34;;;;;;;;;4.00;4.00;;;;;;;;1554025;28;85807;-89
2021/01/27 12:08:19;;;;;;;;;5.00;5.00;;;;;;;;1554380;28;87394;-89
2021/01/27 12:09:08;;;;;;;;;8.00;6.00;;;;;;;;1554699;28;85210;-89
2021/01/27 12:09:53;;;;;;;;;4.00;4.00;;;;;;;;1550699;28;85521;-89
2021/01/27 12:10:38;;;;;;;;;5.33;5.00;;;;;;;;1550800;28;86392;-89
2021/01/27 12:11:23;;;;;;;;;6.00;6.00;;;;;;;;1554217;28;85249;-89
2021/01/27 12:12:09;;;;;;;;;4.67;4.67;;;;;;;;1560718;28;85200;-90
2021/01/27 12:12:56;;;;;;;;;4.00;4.00;;;;;;;;1554737;28;85341;-90
2021/01/27 12:13:42;;;;;;;;;5.50;4.75;;;;;;;;1557405;28;85633;-90
2021/01/27 12:14:27;;;;;;;;;7.00;3.33;;;;;;;;1548254;28;84640;-90
2021/01/27 12:15:16;;;;;;;;;4.00;4.00;;;;;;;;1554671;28;84053;-90
2021/01/27 12:16:01;;;;;;;;;6.50;6.00;;;;;;;;1550836;28;87214;-89
2021/01/27 12:16:46;;;;;;;;;6.00;6.00;;;;;;;;1550676;28;83529;-89
2021/01/27 12:17:32;;;;;;;;;5.00;5.00;;;;;;;;1550333;28;83814;-90
2021/01/27 12:18:18;;;;;;;;;4.50;4.00;;;;;;;;1550378;28;84425;-89
2021/01/27 12:19:03;;;;;;;;;7.33;5.67;;;;;;;;1549752;28;85718;-90
2021/01/27 12:19:51;;;;;;;;;6.33;6.33;;;;;;;;1550383;28;84985;-90
2021/01/27 12:20:46;;;;;;;;;11.00;8.75;;;;;;;;1550820;28;84098;-89
2021/01/27 12:21:37;;;;;;;;;7.50;7.50;;;;;;;;1558665;28;83576;-90
2021/01/27 12:22:22;;;;;;;;;6.00;6.00;;;;;;;;1554762;28;83350;-89
2021/01/27 12:23:10;;;;;;;;;6.00;5.00;;;;;;;;1554584;28;83559;-90
2021/01/27 12:23:55;;;;;;;;;5.50;5.50;;;;;;;;1556941;28;83552;-91
2021/01/27 12:24:43;;;;;;;;;5.00;5.00;;;;;;;;1554820;28;85418;-90
2021/01/27 12:25:28;;;;;;;;;5.25;5.00;;;;;;;;1551132;28;83561;-90
2021/01/27 12:26:19;;;;;;;;;4.33;4.33;;;;;;;;1550869;28;84946;-90
2021/01/27 12:27:06;;;;;;;;;6.00;6.00;;;;;;;;1557936;28;83996;-89
2021/01/27 12:27:51;;;;;;;;;5.75;5.75;;;;;;;;1555605;28;83956;-90
2021/01/27 12:28:37;;;;;;;;;5.00;5.00;;;;;;;;1551110;28;84747;-89
2021/01/27 12:29:23;;;;;;;;;5.25;5.25;;;;;;;;1550294;28;83968;-89
2021/01/27 12:30:11;;;;;;;;;5.33;5.00;;;;;;;;1551843;28;84551;-89
2021/01/27 12:30:57;;;;;;;;;4.00;4.00;;;;;;;;1548434;28;83847;-90
2021/01/27 12:31:42;;;;;;;;;5.00;5.00;;;;;;;;1544591;28;85745;-90
2021/01/27 12:32:30;;;;;;;;;5.33;5.00;;;;;;;;1544486;28;82916;-90
2021/01/27 12:33:15;;;;;;;;;6.25;5.25;;;;;;;;1550509;28;84769;-89
2021/01/27 12:34:03;;;;;;;;;7.67;5.00;;;;;;;;1548380;28;85170;-90
2021/01/27 12:34:48;;;;;;;;;4.00;3.00;;;;;;;;1548328;28;84264;-89
2021/01/27 12:35:34;;;;;;;;;6.33;6.33;;;;;;;;1550954;28;85924;-88
2021/01/27 12:36:22;;;;;;;;;6.00;5.00;;;;;;;;1550495;28;85299;-90
2021/01/27 12:37:07;;;;;;;;;5.50;5.50;;;;;;;;1548283;28;84783;-90
2021/01/27 12:37:52;;;;;;;;;5.67;5.00;;;;;;;;1550670;28;87060;-90
2021/01/27 12:38:38;;;;;;;;;7.00;5.67;;;;;;;;1548180;28;83589;-90
2021/01/27 12:39:23;;;;;;;;;7.67;6.00;;;;;;;;1544970;28;85880;-90
2021/01/27 12:40:10;;;;;;;;;8.33;7.00;;;;;;;;1549317;28;86176;-89
2021/01/27 12:41:06;;;;;;;;;;;;;;;;;;;;;
2021/01/27 12:41:51;;;;;;;;;6.50;5.50;;;;;;;;1551476;28;111413;-89
2021/01/27 12:42:37;;;;;;;;;5.67;5.67;;;;;;;;1551631;28;84848;-90
2021/01/27 12:43:22;;;;;;;;;5.67;5.33;;;;;;;;1554423;28;83682;-90
2021/01/27 12:44:09;;;;;;;;;4.33;4.33;;;;;;;;1556173;28;86595;-90
2021/01/27 12:44:54;;;;;;;;;5.00;5.00;;;;;;;;1552292;28;83635;-90
2021/01/27 12:45:40;;;;;;;;;4.67;4.00;;;;;;;;1548599;28;83630;-90
2021/01/27 12:46:25;;;;;;;;;6.00;6.00;;;;;;;;1543879;28;86351;-90
2021/01/27 12:47:12;;;;;;;;;6.50;5.75;;;;;;;;1544200;28;83507;-90
2021/01/27 12:47:57;;;;;;;;;5.00;5.00;;;;;;;;1550534;28;84628;-90
2021/01/27 12:48:43;;;;;;;;;2.67;2.67;;;;;;;;1556582;28;84653;-89
2021/01/27 12:49:28;;;;;;;;;2.33;2.33;;;;;;;;1552322;28;84704;-89
2021/01/27 12:50:14;;;;;;;;;3.67;3.67;;;;;;;;1547948;28;87297;-89
2021/01/27 12:51:02;;;;;;;;;4.25;4.25;;;;;;;;1544133;28;85844;-90
2021/01/27 12:51:47;;;;;;;;;3.25;3.25;;;;;;;;1544868;28;86366;-90
2021/01/27 12:52:33;;;;;;;;;3.00;3.00;;;;;;;;1547749;28;85816;-90
2021/01/27 12:53:18;;;;;;;;;2.33;2.33;;;;;;;;1549888;28;84856;-89
2021/01/27 12:54:03;;;;;;;;;7.67;6.67;;;;;;;;1547907;28;86708;-89
2021/01/27 12:54:51;;;;;;;;;4.00;4.00;;;;;;;;1548299;28;83399;-90
2021/01/27 12:55:38;;;;;;;;;3.00;3.00;;;;;;;;1544554;28;85325;-90
2021/01/27 12:56:26;;;;;;;;;6.50;4.25;;;;;;;;1544531;28;84783;-90
2021/01/27 12:57:12;;;;;;;;;8.00;7.00;;;;;;;;1544986;28;83717;-90
2021/01/27 12:57:59;;;;;;;;;8.67;8.67;;;;;;;;1547036;28;86047;-90
2021/01/27 12:58:44;;;;;;;;;9.50;6.25;;;;;;;;1548403;28;85645;-89
2021/01/27 12:59:29;;;;;;;;;6.00;6.00;;;;;;;;1544543;28;87015;-89
2021/01/27 13:00:19;;;;;;;;;6.67;6.67;;;;;;;;1547816;28;87612;-89
2021/01/27 13:01:04;;;;;;;;;7.75;6.75;;;;;;;;1544735;28;84001;-90
2021/01/27 13:01:50;;;;;;;;;9.67;8.33;;;;;;;;1544604;28;83881;-89
2021/01/27 13:02:36;;;;;;;;;8.33;5.33;;;;;;;;1544243;28;85053;-90
2021/01/27 13:03:21;;;;;;;;;7.33;5.33;;;;;;;;1550456;28;85233;-90
2021/01/27 13:04:06;;;;;;;;;5.33;5.33;;;;;;;;1548283;28;87113;-90
2021/01/27 13:04:51;;;;;;;;;6.33;6.33;;;;;;;;1550543;28;85584;-90
2021/01/27 13:05:37;;;;;;;;;8.00;7.33;;;;;;;;1556303;28;85653;-90
2021/01/27 13:06:22;;;;;;;;;12.00;9.00;;;;;;;;1560652;28;86800;-90
2021/01/27 13:07:08;;;;;;;;;9.33;8.33;;;;;;;;1552670;28;83909;-90
2021/01/27 13:07:53;;;;;;;;;6.00;5.67;;;;;;;;1548478;28;85531;-90
2021/01/27 13:08:38;;;;;;;;;5.00;5.00;;;;;;;;1546458;28;86397;-89
2021/01/27 13:09:24;;;;;;;;;7.00;6.00;;;;;;;;1550361;28;85630;-90
2021/01/27 13:10:12;;;;;;;;;6.33;5.33;;;;;;;;1554559;28;86900;-89
2021/01/27 13:10:58;;;;;;;;;2.25;2.25;;;;;;;;1551176;28;85206;-89
2021/01/27 13:11:48;;;;;;;;;2.67;2.67;;;;;;;;1549107;28;85867;-90
2021/01/27 13:12:33;;;;;;;;;4.25;4.25;;;;;;;;1546100;28;85550;-89
2021/01/27 13:13:18;;;;;;;;;5.00;5.00;;;;;;;;1549313;28;86866;-90
2021/01/27 13:14:03;;;;;;;;;5.67;3.67;;;;;;;;1548027;28;86497;-90
2021/01/27 13:14:49;;;;;;;;;5.33;5.00;;;;;;;;1544919;28;86179;-90
2021/01/27 13:15:34;;;;;;;;;5.00;5.00;;;;;;;;1543798;28;87079;-90
2021/01/27 13:16:19;;;;;;;;;4.33;4.00;;;;;;;;1543968;28;85877;-89
2021/01/27 13:17:04;;;;;;;;;5.00;4.00;;;;;;;;1543626;28;85527;-90
2021/01/27 13:17:50;;;;;;;;;6.00;6.00;;;;;;;;1544097;28;85196;-90
2021/01/27 13:18:36;;;;;;;;;5.25;4.50;;;;;;;;1544266;28;84047;-90
2021/01/27 13:19:22;;;;;;;;;4.00;4.00;;;;;;;;1546986;28;84390;-90
2021/01/27 13:20:09;;;;;;;;;4.00;4.00;;;;;;;;1544075;28;83429;-90
2021/01/27 13:20:55;;;;;;;;;5.00;5.00;;;;;;;;1544512;28;82940;-90
2021/01/27 13:21:41;;;;;;;;;2.50;2.00;;;;;;;;1544321;28;83613;-90
2021/01/27 13:22:28;;;;;;;;;2.00;2.00;;;;;;;;1544293;28;85264;-90
2021/01/27 13:23:13;;;;;;;;;3.00;3.00;;;;;;;;1544364;28;83509;-89
2021/01/27 13:23:58;;;;;;;;;2.33;2.33;;;;;;;;1550500;28;83353;-90
2021/01/27 13:24:44;;;;;;;;;3.00;3.00;;;;;;;;1553402;28;84145;-90
2021/01/27 13:25:29;;;;;;;;;4.00;4.00;;;;;;;;1554114;28;86012;-90
2021/01/27 13:26:15;;;;;;;;;6.00;4.67;;;;;;;;1554130;28;84987;-90
2021/01/27 13:27:00;;;;;;;;;4.00;4.00;;;;;;;;1554351;28;83800;-90
2021/01/27 13:27:46;;;;;;;;;3.00;3.00;;;;;;;;1548214;28;83680;-89
2021/01/27 13:28:33;;;;;;;;;7.67;5.67;;;;;;;;1547836;28;83675;-90
2021/01/27 13:29:18;;;;;;;;;7.25;4.00;;;;;;;;1543836;28;82897;-90
2021/01/27 13:30:04;;;;;;;;;4.33;4.33;;;;;;;;1549773;28;85052;-89
2021/01/27 13:30:49;;;;;;;;;4.67;4.67;;;;;;;;1548288;28;83424;-89
2021/01/27 13:31:34;;;;;;;;;3.67;3.67;;;;;;;;1550211;28;85142;-89
2021/01/27 13:32:20;;;;;;;;;3.00;3.00;;;;;;;;1547793;28;83539;-89
2021/01/27 13:33:07;;;;;;;;;6.00;4.00;;;;;;;;1547996;28;84414;-89
2021/01/27 13:33:52;;;;;;;;;5.00;5.00;;;;;;;;1543962;28;84550;-90
2021/01/27 13:34:37;;;;;;;;;6.33;4.67;;;;;;;;1550098;28;83869;-90
2021/01/27 13:35:24;;;;;;;;;6.33;6.33;;;;;;;;1553875;28;85395;-89
2021/01/27 13:36:12;;;;;;;;;4.75;4.75;;;;;;;;1554320;28;83734;-90
2021/01/27 13:36:57;;;;;;;;;5.00;5.00;;;;;;;;1549420;28;84167;-89
2021/01/27 13:37:46;;;;;;;;;7.67;7.00;;;;;;;;1554046;28;85693;-89
2021/01/27 13:38:31;;;;;;;;;6.25;5.00;;;;;;;;1553701;28;83633;-90
2021/01/27 13:39:17;;;;;;;;;5.00;5.00;;;;;;;;1553878;28;83909;-89
2021/01/27 13:40:03;;;;;;;;;7.00;7.00;;;;;;;;1549297;28;83586;-90
2021/01/27 13:40:49;;;;;;;;;11.00;10.50;;;;;;;;1550162;28;83932;-90
2021/01/27 13:41:37;;;;;;;;;11.50;11.00;;;;;;;;1553035;28;85043;-90
2021/01/27 13:42:23;;;;;;;;;8.25;7.25;;;;;;;;1547810;28;83798;-90
2021/01/27 13:43:08;;;;;;;;;6.67;6.67;;;;;;;;1544165;28;85916;-90
2021/01/27 13:43:53;;;;;;;;;5.67;5.67;;;;;;;;1550320;28;86241;-91
2021/01/27 13:44:39;;;;;;;;;10.33;9.33;;;;;;;;1553816;28;85553;-90
2021/01/27 13:45:29;;;;;;;;;7.75;7.00;;;;;;;;1550162;28;85814;-89
2021/01/27 13:46:17;;;;;;;;;8.25;7.00;;;;;;;;1547982;28;85010;-89
2021/01/27 13:47:02;;;;;;;;;4.25;4.25;;;;;;;;1550871;28;86412;-90
2021/01/27 13:47:48;;;;;;;;;7.00;5.67;;;;;;;;1554157;28;86473;-89
2021/01/27 13:48:33;;;;;;;;;5.00;5.00;;;;;;;;1547921;28;85947;-89
2021/01/27 13:49:18;;;;;;;;;5.33;4.00;;;;;;;;1547977;28;86016;-89
2021/01/27 13:50:04;;;;;;;;;5.00;5.00;;;;;;;;1543890;28;84087;-89
2021/01/27 13:50:49;;;;;;;;;8.33;7.00;;;;;;;;1543700;28;85971;-89
2021/01/27 13:51:34;;;;;;;;;4.00;4.00;;;;;;;;1543318;28;86095;-89
2021/01/27 13:52:19;;;;;;;;;3.33;3.33;;;;;;;;1550019;28;84599;-89
2021/01/27 13:53:07;;;;;;;;;6.00;6.00;;;;;;;;1553864;28;86271;-89
2021/01/27 13:53:52;;;;;;;;;4.00;4.00;;;;;;;;1548001;28;85094;-89
2021/01/27 13:54:38;;;;;;;;;9.00;6.33;;;;;;;;1544086;28;85118;-89
2021/01/27 13:55:23;;;;;;;;;5.33;5.33;;;;;;;;1548835;28;86242;-89
2021/01/27 13:56:11;;;;;;;;;5.00;5.00;;;;;;;;1547987;28;86317;-89
2021/01/27 13:56:56;;;;;;;;;8.00;6.50;;;;;;;;1550107;28;85119;-89
2021/01/27 13:57:42;;;;;;;;;5.00;5.00;;;;;;;;1554039;28;86984;-89
2021/01/27 13:58:27;;;;;;;;;6.33;6.33;;;;;;;;1549790;28;84518;-90
2021/01/27 13:59:15;;;;;;;;;5.00;5.00;;;;;;;;1553827;28;86075;-89
2021/01/27 14:00:09;;;;;;;;;5.00;5.00;;;;;;;;1550175;28;84868;-90
2021/01/27 14:00:55;;;;;;;;;6.00;5.00;;;;;;;;1551562;28;84834;-89
2021/01/27 14:01:42;;;;;;;;;6.00;5.33;;;;;;;;1551085;28;84852;-89
2021/01/27 14:02:29;;;;;;;;;5.50;5.50;;;;;;;;1556517;28;83668;-89
2021/01/27 14:03:14;;;;;;;;;6.00;5.00;;;;;;;;1556829;28;85784;-89
2021/01/27 14:03:59;;;;;;;;;7.00;5.33;;;;;;;;1554195;28;85114;-89
2021/01/27 14:04:44;;;;;;;;;5.33;3.67;;;;;;;;1549853;28;86577;-88
2021/01/27 14:05:30;;;;;;;;;7.67;6.67;;;;;;;;1549880;28;86519;-89
2021/01/27 14:06:15;;;;;;;;;8.33;7.33;;;;;;;;1554219;28;84529;-89
2021/01/27 14:07:03;;;;;;;;;9.00;7.67;;;;;;;;1554090;28;85075;-89
2021/01/27 14:07:52;;;;;;;;;8.50;8.50;;;;;;;;1550244;28;85252;-90
2021/01/27 14:08:39;;;;;;;;;5.75;5.75;;;;;;;;1550427;28;85447;-89
2021/01/27 14:09:24;;;;;;;;;6.00;6.00;;;;;;;;1557027;28;86981;-89
2021/01/27 14:10:10;;;;;;;;;6.33;6.33;;;;;;;;1553801;28;86894;-89
2021/01/27 14:10:55;;;;;;;;;10.00;8.67;;;;;;;;1553274;28;86958;-89
2021/01/27 14:11:40;;;;;;;;;8.00;8.00;;;;;;;;1549620;28;87715;-90
2021/01/27 14:12:27;;;;;;;;;10.00;8.00;;;;;;;;1549527;28;86829;-89
2021/01/27 14:13:12;;;;;;;;;8.00;6.25;;;;;;;;1555909;28;85191;-89
2021/01/27 14:13:57;;;;;;;;;8.00;7.00;;;;;;;;1560299;28;86669;-89
2021/01/27 14:14:45;;;;;;;;;7.00;5.67;;;;;;;;1554125;28;85161;-90
2021/01/27 14:15:31;;;;;;;;;5.50;5.50;;;;;;;;1554120;28;84197;-89
2021/01/27 14:16:19;;;;;;;;;6.50;6.50;;;;;;;;1547708;28;85647;-89
2021/01/27 14:17:05;;;;;;;;;5.50;5.00;;;;;;;;1544087;28;85577;-89
2021/01/27 14:17:50;;;;;;;;;6.00;6.00;;;;;;;;1550212;28;85627;-89
2021/01/27 14:18:35;;;;;;;;;6.33;5.00;;;;;;;;1553935;28;85230;-89
2021/01/27 14:19:21;;;;;;;;;3.00;3.00;;;;;;;;1547675;28;86135;-90
2021/01/27 14:20:06;;;;;;;;;7.67;5.00;;;;;;;;1544077;28;84448;-90
2021/01/27 14:20:52;;;;;;;;;8.67;6.00;;;;;;;;1544021;28;86922;-90
2021/01/27 14:21:37;;;;;;;;;6.67;6.67;;;;;;;;1549513;28;86593;-90
2021/01/27 14:22:22;;;;;;;;;5.00;5.00;;;;;;;;1547954;28;85631;-89
2021/01/27 14:23:07;;;;;;;;;8.00;5.00;;;;;;;;1547718;28;86010;-89
2021/01/27 14:23:53;;;;;;;;;5.00;5.00;;;;;;;;1543718;28;86336;-90
2021/01/27 14:24:38;;;;;;;;;5.67;5.67;;;;;;;;1549760;28;87431;-90
2021/01/27 14:25:25;;;;;;;;;4.67;4.67;;;;;;;;1552410;28;83410;-90
2021/01/27 14:26:11;;;;;;;;;6.50;5.25;;;;;;;;1554527;28;83949;-89
2021/01/27 14:26:56;;;;;;;;;6.00;6.00;;;;;;;;1550404;28;86275;-88
2021/01/27 14:27:42;;;;;;;;;7.67;6.00;;;;;;;;1549554;28;83379;-89
2021/01/27 14:28:28;;;;;;;;;6.00;5.75;;;;;;;;1545531;28;84058;-89
2021/01/27 14:29:13;;;;;;;;;5.00;5.00;;;;;;;;1551642;28;84486;-89
2021/01/27 14:29:58;;;;;;;;;6.33;5.67;;;;;;;;1551826;28;86175;-89
2021/01/27 14:30:45;;;;;;;;;6.67;6.67;;;;;;;;1549899;28;83675;-88
2021/01/27 14:31:30;;;;;;;;;5.25;5.25;;;;;;;;1549463;28;83828;-89
2021/01/27 14:32:15;;;;;;;;;6.67;6.67;;;;;;;;1545874;28;83899;-89
2021/01/27 14:33:03;;;;;;;;;6.00;4.00;;;;;;;;1546100;28;85383;-88
2021/01/27 14:33:48;;;;;;;;;7.75;5.25;;;;;;;;1551920;28;84031;-89
2021/01/27 14:34:33;;;;;;;;;8.67;6.33;;;;;;;;1558290;28;83767;-89
2021/01/27 14:35:21;;;;;;;;;5.00;5.00;;;;;;;;1552473;28;84982;-89
2021/01/27 14:36:08;;;;;;;;;5.00;5.00;;;;;;;;1543509;28;83425;-90
2021/01/27 14:36:54;;;;;;;;;5.00;5.00;;;;;;;;1550600;28;85420;-89
2021/01/27 14:37:39;;;;;;;;;6.00;3.00;;;;;;;;1556357;28;83521;-89
2021/01/27 14:38:25;;;;;;;;;6.00;4.67;;;;;;;;1553331;28;83699;-89
2021/01/27 14:39:11;;;;;;;;;5.67;4.33;;;;;;;;1547784;28;83419;-89
2021/01/27 14:39:56;;;;;;;;;8.33;6.33;;;;;;;;1549584;28;83134;-90
2021/01/27 14:40:41;;;;;;;;;5.00;5.00;;;;;;;;1547716;28;84398;-89
2021/01/27 14:41:29;;;;;;;;;4.00;3.67;;;;;;;;1547491;28;85348;-90
2021/01/27 14:42:15;;;;;;;;;4.50;4.50;;;;;;;;1550351;28;84601;-89
2021/01/27 14:43:00;;;;;;;;;5.00;5.00;;;;;;;;1550257;28;83303;-91
2021/01/27 14:43:48;;;;;;;;;4.67;4.67;;;;;;;;1548644;28;83732;-89
2021/01/27 14:44:34;;;;;;;;;8.75;6.75;;;;;;;;1550452;28;83557;-89
2021/01/27 14:45:19;;;;;;;;;7.00;6.50;;;;;;;;1553936;28;84800;-90
2021/01/27 14:46:05;;;;;;;;;5.00;5.00;;;;;;;;1548254;28;83854;-89
2021/01/27 14:46:51;;;;;;;;;6.33;5.33;;;;;;;;1546128;28;84683;-89
2021/01/27 14:47:37;;;;;;;;;9.00;6.50;;;;;;;;1543779;28;86210;-89
2021/01/27 14:48:22;;;;;;;;;6.00;6.00;;;;;;;;1543768;28;85283;-89
2021/01/27 14:49:08;;;;;;;;;7.67;7.67;;;;;;;;1548168;28;84721;-89
2021/01/27 14:49:53;;;;;;;;;6.33;6.33;;;;;;;;1554140;28;85343;-90
2021/01/27 14:50:39;;;;;;;;;7.33;7.33;;;;;;;;1551340;28;85866;-89
2021/01/27 14:51:24;;;;;;;;;7.33;7.33;;;;;;;;1547050;28;86691;-89
2021/01/27 14:52:12;;;;;;;;;6.33;6.33;;;;;;;;1546575;28;86403;-90
2021/01/27 14:52:57;;;;;;;;;8.50;6.00;;;;;;;;1546427;28;84718;-90
2021/01/27 14:53:42;;;;;;;;;5.33;5.33;;;;;;;;1549670;28;85421;-89
2021/01/27 14:54:30;;;;;;;;;9.67;7.33;;;;;;;;1551795;28;88077;-91
2021/01/27 14:55:16;;;;;;;;;8.25;8.25;;;;;;;;1548497;28;84629;-89
2021/01/27 14:56:01;;;;;;;;;7.00;6.00;;;;;;;;1544459;28;84945;-89
2021/01/27 14:56:47;;;;;;;;;8.00;8.00;;;;;;;;1544076;28;86333;-89
2021/01/27 14:57:32;;;;;;;;;8.00;6.00;;;;;;;;1543588;28;86025;-89
2021/01/27 14:58:17;;;;;;;;;6.33;5.00;;;;;;;;1548092;28;85262;-89
2021/01/27 14:59:03;;;;;;;;;8.33;7.00;;;;;;;;1547865;28;86306;-89
2021/01/27 14:59:48;;;;;;;;;7.00;7.00;;;;;;;;1552555;28;84700;-89